ESGT/THN METAR and TAF weather

Enter ICAO airport designator
Station Type Date Time Source
ESGT METAR 2019/04/25 21:20 UTC NOAA

ESGT 252120Z AUTO 05004KT 9999 OVC082/// 14/08 Q1014 RERA


Station Type Date Time Source
ESGT Decoded METAR 2019/04/25 21:20 UTC NOAA

Trollhattan Private , Sweden (ESGT) 58-19N 012-21E
Apr 25, 2019 - 05:20 PM EDT / 2019.04.25 2120 UTC
Wind: from the NE (050 degrees) at 5 MPH (4 KT):0
Visibility: greater than 7 mile(s):0
Sky conditions: overcast
Temperature: 57 F (14 C)
Dew Point: 46 F (8 C)
Relative Humidity: 67%
Pressure (altimeter): 29.94 in. Hg (1014 hPa)
ob: ESGT 252120Z AUTO 05004KT 9999 OVC082/// 14/08 Q1014 RERA
cycle: 21

Station Type Date Time Source
ESGT TAF 2016/08/12 05:58 UTC NOAA

TAF ESGT 120430Z 1205/1224 18007KT 9999 FEW030

Example: see airport list